createdAt,value
2018-11-06T00:01:11.884Z,6.50
2018-11-06T00:03:49.211Z,6.50
2018-11-06T00:06:19.501Z,6.60
2018-11-06T00:08:49.784Z,6.50
2018-11-06T00:11:20.089Z,6.50
2018-11-06T00:13:50.376Z,6.50
2018-11-06T00:16:20.665Z,6.50
2018-11-06T00:18:50.931Z,6.40
2018-11-06T00:21:21.242Z,6.40
2018-11-06T00:23:51.535Z,6.40
2018-11-06T00:26:21.819Z,6.40
2018-11-06T00:28:52.168Z,6.30
2018-11-06T00:31:22.449Z,6.30
2018-11-06T00:33:52.790Z,6.20
2018-11-06T00:36:23.077Z,6.20
2018-11-06T00:38:53.373Z,6.10
2018-11-06T00:41:23.703Z,6.10
2018-11-06T00:43:53.968Z,6.10
2018-11-06T00:46:24.268Z,6.10
2018-11-06T00:48:54.576Z,6.20
2018-11-06T00:51:24.873Z,6.20
2018-11-06T00:53:55.180Z,6.10
2018-11-06T00:56:25.500Z,6.10
2018-11-06T00:58:55.808Z,6.10
2018-11-06T01:01:26.120Z,6.00
2018-11-06T01:04:01.537Z,6.00
2018-11-06T01:06:31.783Z,6.00
2018-11-06T01:09:02.093Z,6.00
2018-11-06T01:11:32.388Z,6.00
2018-11-06T01:14:02.792Z,6.00
2018-11-06T01:16:33.062Z,6.00
2018-11-06T01:19:03.527Z,6.00
2018-11-06T01:21:33.845Z,5.90
2018-11-06T01:24:04.216Z,6.00
2018-11-06T01:26:34.502Z,6.00
2018-11-06T01:29:05.101Z,6.00
2018-11-06T01:31:35.381Z,6.00
2018-11-06T01:34:05.798Z,6.00
2018-11-06T01:36:36.125Z,5.90
2018-11-06T01:39:08.910Z,5.90
2018-11-06T01:41:39.232Z,5.90
2018-11-06T01:44:09.720Z,5.90
2018-11-06T01:46:39.996Z,5.90
2018-11-06T01:49:10.290Z,5.90
2018-11-06T01:51:40.539Z,5.80
2018-11-06T01:54:10.802Z,5.80
2018-11-06T01:56:41.308Z,5.80
2018-11-06T01:59:11.629Z,5.80
2018-11-06T02:01:41.970Z,5.80
2018-11-06T02:04:12.241Z,5.70
2018-11-06T02:06:42.563Z,5.70
2018-11-06T02:09:12.953Z,5.60
2018-11-06T02:11:43.278Z,5.70
2018-11-06T02:14:13.580Z,5.70
2018-11-06T02:16:43.872Z,5.70
2018-11-06T02:19:14.474Z,5.70
2018-11-06T02:21:44.892Z,5.70
2018-11-06T02:24:21.961Z,5.70
2018-11-06T02:26:52.298Z,5.60
2018-11-06T02:29:22.605Z,5.60
2018-11-06T02:31:52.905Z,5.60
2018-11-06T02:34:23.221Z,5.60
2018-11-06T02:36:53.526Z,5.60
2018-11-06T02:39:23.836Z,5.60
2018-11-06T02:41:54.091Z,5.60
2018-11-06T02:44:24.444Z,5.50
2018-11-06T02:46:55.117Z,5.50
2018-11-06T02:49:25.392Z,5.50
2018-11-06T02:51:55.679Z,5.50
2018-11-06T02:54:25.936Z,5.50
2018-11-06T02:56:56.232Z,5.40
2018-11-06T02:59:26.514Z,5.40
2018-11-06T03:01:56.772Z,5.40
2018-11-06T03:04:27.064Z,5.40
2018-11-06T03:06:57.352Z,5.40
2018-11-06T03:09:27.707Z,5.40
2018-11-06T03:11:57.986Z,5.40
2018-11-06T03:14:28.285Z,5.40
2018-11-06T03:16:58.586Z,5.40
2018-11-06T03:19:28.902Z,5.40
2018-11-06T03:21:59.210Z,5.40
2018-11-06T03:24:29.493Z,5.30
2018-11-06T03:26:59.945Z,5.30
2018-11-06T03:29:30.053Z,5.30
2018-11-06T03:32:00.359Z,5.30
2018-11-06T03:34:30.612Z,5.20
2018-11-06T03:37:00.906Z,5.30
2018-11-06T03:39:31.150Z,5.30
2018-11-06T03:42:01.465Z,5.20
2018-11-06T03:44:31.812Z,5.20
2018-11-06T03:47:02.338Z,5.20
2018-11-06T03:49:32.636Z,5.10
2018-11-06T03:52:02.932Z,5.10
2018-11-06T03:54:33.256Z,5.10
2018-11-06T03:57:03.627Z,5.10
2018-11-06T03:59:33.876Z,5.00
2018-11-06T04:02:04.169Z,5.00
2018-11-06T04:04:34.514Z,5.00
2018-11-06T04:07:04.801Z,5.00
2018-11-06T04:09:35.102Z,5.00
2018-11-06T04:12:05.829Z,5.00
2018-11-06T04:14:36.096Z,4.90
2018-11-06T04:17:06.433Z,4.90
2018-11-06T04:19:36.689Z,4.90
2018-11-06T04:22:07.326Z,4.90
2018-11-06T04:24:37.633Z,4.80
2018-11-06T04:27:07.937Z,4.90
2018-11-06T04:29:38.207Z,4.90
2018-11-06T04:32:08.477Z,4.80
2018-11-06T04:34:38.769Z,4.80
2018-11-06T04:37:09.082Z,4.80
2018-11-06T04:39:39.378Z,4.80
2018-11-06T04:42:09.660Z,4.80
2018-11-06T04:44:40.002Z,4.80
2018-11-06T04:47:10.292Z,4.80
2018-11-06T04:49:40.553Z,4.80
2018-11-06T04:52:10.904Z,4.80
2018-11-06T04:54:41.176Z,4.80
2018-11-06T04:57:11.438Z,4.80
2018-11-06T04:59:41.727Z,4.70
2018-11-06T05:02:12.091Z,4.70
2018-11-06T05:04:42.296Z,4.70
2018-11-06T05:07:12.594Z,4.70
2018-11-06T05:09:42.926Z,4.70
2018-11-06T05:12:13.187Z,4.70
2018-11-06T05:14:43.497Z,4.70
2018-11-06T05:17:13.769Z,4.60
2018-11-06T05:19:44.033Z,4.60
2018-11-06T05:22:14.305Z,4.60
2018-11-06T05:24:44.611Z,4.60
2018-11-06T05:27:14.889Z,4.50
2018-11-06T05:29:45.162Z,4.50
2018-11-06T05:32:15.516Z,4.50
2018-11-06T05:34:45.864Z,4.50
2018-11-06T05:37:16.166Z,4.50
2018-11-06T05:40:03.261Z,4.50
2018-11-06T05:42:33.592Z,4.50
2018-11-06T05:45:03.902Z,4.50
2018-11-06T05:47:34.198Z,4.50
2018-11-06T05:50:04.539Z,4.50
2018-11-06T05:52:34.945Z,4.40
2018-11-06T05:55:05.772Z,4.40
2018-11-06T05:57:36.083Z,4.40
2018-11-06T06:00:07.178Z,4.40
2018-11-06T06:02:37.485Z,4.40
2018-11-06T06:05:08.500Z,4.50
2018-11-06T06:07:38.792Z,4.50
2018-11-06T06:10:09.189Z,4.50
2018-11-06T06:12:39.489Z,4.50
2018-11-06T06:15:10.207Z,4.60
2018-11-06T06:17:40.488Z,4.60
2018-11-06T06:20:10.870Z,4.60
2018-11-06T06:22:41.228Z,4.60
2018-11-06T06:25:11.494Z,4.60
2018-11-06T06:27:41.793Z,4.70
2018-11-06T06:30:14.742Z,4.70
2018-11-06T06:32:45.028Z,4.70
2018-11-06T06:35:15.385Z,4.70
2018-11-06T06:37:45.593Z,4.70
2018-11-06T06:40:16.969Z,4.80
2018-11-06T06:42:47.756Z,4.80
2018-11-06T06:45:19.229Z,4.80
2018-11-06T06:47:49.526Z,4.80
2018-11-06T06:50:20.437Z,4.90
2018-11-06T06:52:50.704Z,5.00
2018-11-06T06:55:20.964Z,5.10
2018-11-06T06:57:51.260Z,5.20
2018-11-06T07:00:22.596Z,5.20
2018-11-06T07:02:52.955Z,5.30
2018-11-06T07:05:24.057Z,5.40
2018-11-06T07:07:54.357Z,5.40
2018-11-06T07:10:24.684Z,5.50
2018-11-06T07:12:55.047Z,5.60
2018-11-06T07:15:25.310Z,5.70
2018-11-06T07:17:55.618Z,5.70
2018-11-06T07:20:26.612Z,5.80
2018-11-06T07:22:56.905Z,5.80
2018-11-06T07:25:27.208Z,5.90
2018-11-06T07:27:57.528Z,6.00
2018-11-06T07:30:27.844Z,6.10
2018-11-06T07:32:58.221Z,6.10
2018-11-06T07:35:28.735Z,6.30
2018-11-06T07:37:58.997Z,6.40
2018-11-06T07:40:29.418Z,6.40
2018-11-06T07:42:59.729Z,6.50
2018-11-06T07:45:30.055Z,6.60
2018-11-06T07:48:00.312Z,6.70
2018-11-06T07:50:30.677Z,6.80
2018-11-06T07:53:00.883Z,6.90
2018-11-06T07:55:31.266Z,7.10
2018-11-06T07:58:01.591Z,7.20
2018-11-06T08:00:31.875Z,7.30
2018-11-06T08:03:02.147Z,7.40
2018-11-06T08:05:32.475Z,7.50
2018-11-06T08:08:02.727Z,7.60
2018-11-06T08:10:33.001Z,7.70
2018-11-06T08:13:03.345Z,7.80
2018-11-06T08:15:33.603Z,7.90
2018-11-06T08:18:03.957Z,8.00
2018-11-06T08:20:34.236Z,8.10
2018-11-06T08:23:04.489Z,8.20
2018-11-06T08:25:34.801Z,8.30
2018-11-06T08:28:05.478Z,8.40
2018-11-06T08:30:35.880Z,8.50
2018-11-06T08:33:06.250Z,8.60
2018-11-06T08:35:36.543Z,8.70
2018-11-06T08:38:06.935Z,8.80
2018-11-06T08:40:37.264Z,9.00
2018-11-06T08:43:07.555Z,9.10
2018-11-06T08:45:37.882Z,9.20
2018-11-06T08:48:08.273Z,9.30
2018-11-06T08:50:38.500Z,9.40
2018-11-06T08:53:08.800Z,9.50
2018-11-06T08:55:39.099Z,9.70
2018-11-06T08:58:09.470Z,9.90
2018-11-06T09:00:39.802Z,10.10
2018-11-06T09:03:10.158Z,10.30
2018-11-06T09:05:40.470Z,10.50
2018-11-06T09:08:10.922Z,10.70
2018-11-06T09:10:41.305Z,11.00
2018-11-06T09:13:11.716Z,11.20
2018-11-06T09:15:42.050Z,11.40
2018-11-06T09:18:13.281Z,11.60
2018-11-06T09:20:43.601Z,11.80
2018-11-06T09:23:14.102Z,12.10
2018-11-06T09:25:44.406Z,12.30
2018-11-06T09:28:14.743Z,12.50
2018-11-06T09:30:45.091Z,12.60
2018-11-06T09:33:15.528Z,12.60
2018-11-06T09:35:45.822Z,12.80
2018-11-06T09:38:16.122Z,13.00
2018-11-06T09:40:46.408Z,13.10
2018-11-06T09:43:17.246Z,13.20
2018-11-06T09:45:47.537Z,13.30
2018-11-06T09:48:17.829Z,13.30
2018-11-06T09:50:48.104Z,13.50
2018-11-06T09:53:18.419Z,13.60
2018-11-06T09:55:48.750Z,13.80
2018-11-06T09:58:19.088Z,13.90
2018-11-06T10:00:49.473Z,13.90
2018-11-06T10:03:19.756Z,14.00
2018-11-06T10:05:50.069Z,14.00
2018-11-06T10:08:20.401Z,13.90
2018-11-06T10:10:50.750Z,13.90
2018-11-06T10:13:21.048Z,13.90
2018-11-06T10:15:51.353Z,13.80
2018-11-06T10:18:21.672Z,13.70
2018-11-06T10:20:52.004Z,13.80
2018-11-06T10:23:22.261Z,13.80
2018-11-06T10:25:52.572Z,13.90
2018-11-06T10:28:22.912Z,13.90
2018-11-06T10:30:53.201Z,14.10
2018-11-06T10:33:23.557Z,14.20
2018-11-06T10:35:53.885Z,14.40
2018-11-06T10:38:24.206Z,14.60
2018-11-06T10:40:54.484Z,14.80
2018-11-06T10:43:24.739Z,14.90
2018-11-06T10:45:54.984Z,15.20
2018-11-06T10:48:25.279Z,15.40
2018-11-06T10:50:55.545Z,15.50
2018-11-06T10:53:25.812Z,15.70
2018-11-06T10:55:56.153Z,15.90
2018-11-06T10:58:26.492Z,16.10
2018-11-06T11:01:01.940Z,16.30
2018-11-06T11:03:40.881Z,16.60
2018-11-06T11:06:11.165Z,17.00
2018-11-06T11:08:41.490Z,17.30
2018-11-06T11:11:11.845Z,17.50
2018-11-06T11:13:42.145Z,17.80
2018-11-06T11:16:12.375Z,18.00
2018-11-06T11:18:42.643Z,18.20
2018-11-06T11:21:12.948Z,18.30
2018-11-06T11:23:43.235Z,18.60
2018-11-06T11:26:13.560Z,18.90
2018-11-06T11:28:43.804Z,19.20
2018-11-06T11:31:14.084Z,19.40
2018-11-06T11:33:44.400Z,19.70
2018-11-06T11:36:14.672Z,20.00
2018-11-06T11:38:44.973Z,20.20
2018-11-06T11:41:15.285Z,20.10
2018-11-06T11:43:45.564Z,20.00
2018-11-06T11:46:15.838Z,19.70
2018-11-06T11:48:46.096Z,19.40
2018-11-06T11:51:16.383Z,19.10
2018-11-06T11:53:46.636Z,19.10
2018-11-06T11:56:16.933Z,19.00
2018-11-06T11:58:47.210Z,19.10
2018-11-06T12:01:17.488Z,19.10
2018-11-06T12:03:47.808Z,19.00
2018-11-06T12:06:18.065Z,19.00
2018-11-06T12:08:48.328Z,19.00
2018-11-06T12:11:18.569Z,18.80
2018-11-06T12:13:48.840Z,18.60
2018-11-06T12:16:19.212Z,18.50
2018-11-06T12:18:49.585Z,18.40
2018-11-06T12:21:19.940Z,18.40
2018-11-06T12:23:50.270Z,18.30
2018-11-06T12:26:20.512Z,18.30
2018-11-06T12:28:50.857Z,18.30
2018-11-06T12:31:21.184Z,18.40
2018-11-06T12:33:51.424Z,18.60
2018-11-06T12:36:21.782Z,18.70
2018-11-06T12:38:52.042Z,18.90
2018-11-06T12:41:22.400Z,19.00
2018-11-06T12:43:52.755Z,19.10
2018-11-06T12:46:23.119Z,19.20
2018-11-06T12:48:53.397Z,19.30
2018-11-06T12:51:23.683Z,19.40
2018-11-06T12:53:53.945Z,19.30
2018-11-06T12:56:24.313Z,19.30
2018-11-06T12:58:54.579Z,19.40
2018-11-06T13:01:24.863Z,19.40
2018-11-06T13:03:55.160Z,19.30
2018-11-06T13:06:25.457Z,19.30
2018-11-06T13:08:55.788Z,19.20
2018-11-06T13:11:26.089Z,19.20
2018-11-06T13:13:56.467Z,19.20
2018-11-06T13:16:26.784Z,19.20
2018-11-06T13:18:57.112Z,19.20
2018-11-06T13:21:27.436Z,19.10
2018-11-06T13:23:57.695Z,19.00
2018-11-06T13:26:28.178Z,18.60
2018-11-06T13:28:58.295Z,18.20
2018-11-06T13:31:28.633Z,17.90
2018-11-06T13:33:58.944Z,17.70
2018-11-06T13:36:29.337Z,17.50
2018-11-06T13:38:59.585Z,17.30
2018-11-06T13:41:29.931Z,17.10
2018-11-06T13:44:00.434Z,16.90
2018-11-06T13:46:30.532Z,16.80
2018-11-06T13:49:00.859Z,16.80
2018-11-06T13:51:31.150Z,16.70
2018-11-06T13:54:01.421Z,16.60
2018-11-06T13:56:31.863Z,16.50
2018-11-06T13:59:02.170Z,16.50
2018-11-06T14:01:32.502Z,16.50
2018-11-06T14:04:02.786Z,16.50
2018-11-06T14:06:33.029Z,16.50
2018-11-06T14:09:03.492Z,16.40
2018-11-06T14:11:33.748Z,16.30
2018-11-06T14:14:04.076Z,16.30
2018-11-06T14:16:34.444Z,16.20
2018-11-06T14:19:04.761Z,16.10
2018-11-06T14:21:35.141Z,16.00
2018-11-06T14:24:05.560Z,15.80
2018-11-06T14:26:35.875Z,15.80
2018-11-06T14:29:07.148Z,15.70
2018-11-06T14:31:37.464Z,15.70
2018-11-06T14:34:07.752Z,15.60
2018-11-06T14:36:38.020Z,15.50
2018-11-06T14:39:09.550Z,15.40
2018-11-06T14:41:39.943Z,15.30
2018-11-06T14:44:10.219Z,15.10
2018-11-06T14:46:40.552Z,14.90
2018-11-06T14:49:10.862Z,14.70
2018-11-06T14:51:41.154Z,14.60
2018-11-06T14:54:11.437Z,14.40
2018-11-06T14:56:41.763Z,14.20
2018-11-06T14:59:12.008Z,14.00
2018-11-06T15:01:42.340Z,13.90
2018-11-06T15:04:13.458Z,13.70
2018-11-06T15:06:43.801Z,13.60
2018-11-06T15:09:14.098Z,13.50
2018-11-06T15:11:44.399Z,13.30
2018-11-06T15:14:14.692Z,13.20
2018-11-06T15:16:45.006Z,13.00
2018-11-06T15:19:15.365Z,12.90
2018-11-06T15:21:45.631Z,12.80
2018-11-06T15:24:15.930Z,12.70
2018-11-06T15:26:46.271Z,12.60
2018-11-06T15:29:16.573Z,12.50
2018-11-06T15:31:46.854Z,12.40
2018-11-06T15:34:17.085Z,12.30
2018-11-06T15:36:47.394Z,12.20
2018-11-06T15:39:17.745Z,12.10
2018-11-06T15:41:48.152Z,12.00
2018-11-06T15:44:18.325Z,11.90
2018-11-06T15:46:48.572Z,11.80
2018-11-06T15:49:18.897Z,11.70
2018-11-06T15:51:49.204Z,11.60
2018-11-06T15:54:19.551Z,11.50
2018-11-06T15:56:49.854Z,11.40
2018-11-06T15:59:20.137Z,11.30
2018-11-06T16:01:50.519Z,11.20
2018-11-06T16:04:20.768Z,11.10
2018-11-06T16:06:51.122Z,11.10
2018-11-06T16:09:21.524Z,11.00
2018-11-06T16:11:51.898Z,10.90
2018-11-06T16:14:22.290Z,10.80
2018-11-06T16:16:52.594Z,10.80
2018-11-06T16:19:22.912Z,10.80
2018-11-06T16:21:53.207Z,10.70
2018-11-06T16:24:23.504Z,10.70
2018-11-06T16:26:53.777Z,10.60
2018-11-06T16:29:24.403Z,10.50
2018-11-06T16:31:54.703Z,10.50
2018-11-06T16:34:25.059Z,10.40
2018-11-06T16:36:55.348Z,10.40
2018-11-06T16:39:25.639Z,10.30
2018-11-06T16:41:55.979Z,10.20
2018-11-06T16:44:26.325Z,10.20
2018-11-06T16:46:56.688Z,10.10
2018-11-06T16:49:26.970Z,10.10
2018-11-06T16:51:57.262Z,10.00
2018-11-06T16:54:27.629Z,9.90
2018-11-06T16:56:58.041Z,9.90
2018-11-06T16:59:28.208Z,9.80
2018-11-06T17:01:58.500Z,9.80
2018-11-06T17:04:28.801Z,9.80
2018-11-06T17:06:59.876Z,9.70
2018-11-06T17:09:30.152Z,9.60
2018-11-06T17:12:00.434Z,9.50
2018-11-06T17:14:30.732Z,9.50
2018-11-06T17:17:01.049Z,9.50
2018-11-06T17:19:31.403Z,9.50
2018-11-06T17:22:01.685Z,9.40
2018-11-06T17:24:31.944Z,9.40
2018-11-06T17:27:02.179Z,9.40
2018-11-06T17:29:32.434Z,9.40
2018-11-06T17:32:02.697Z,9.40
2018-11-06T17:34:32.952Z,9.30
2018-11-06T17:37:03.239Z,9.30
2018-11-06T17:39:33.533Z,9.30
2018-11-06T17:42:03.827Z,9.30
2018-11-06T17:44:34.077Z,9.20
2018-11-06T17:47:04.339Z,9.20
2018-11-06T17:49:34.657Z,9.20
2018-11-06T17:52:04.931Z,9.20
2018-11-06T17:54:35.223Z,9.10
2018-11-06T17:57:05.680Z,9.00
2018-11-06T17:59:36.191Z,9.00
2018-11-06T18:02:06.841Z,8.90
2018-11-06T18:04:37.202Z,8.90
2018-11-06T18:07:07.391Z,8.90
2018-11-06T18:09:37.689Z,8.90
2018-11-06T18:12:09.117Z,8.80
2018-11-06T18:14:39.522Z,8.70
2018-11-06T18:17:09.894Z,8.70
2018-11-06T18:19:40.415Z,8.70
2018-11-06T18:22:10.778Z,8.70
2018-11-06T18:24:41.271Z,8.60
2018-11-06T18:27:12.939Z,8.50
2018-11-06T18:29:43.609Z,8.40
2018-11-06T18:32:14.136Z,8.40
2018-11-06T18:34:44.471Z,8.30
2018-11-06T18:37:14.860Z,8.30
2018-11-06T18:39:45.176Z,8.30
2018-11-06T18:42:15.565Z,8.20
2018-11-06T18:44:45.909Z,8.20
2018-11-06T18:47:16.309Z,8.10
2018-11-06T18:49:46.704Z,8.20
2018-11-06T18:52:17.101Z,8.10
2018-11-06T18:54:47.434Z,8.10
2018-11-06T18:57:17.877Z,8.10
2018-11-06T18:59:48.260Z,8.20
2018-11-06T19:02:18.895Z,8.20
2018-11-06T19:04:49.975Z,8.10
2018-11-06T19:07:20.402Z,8.00
2018-11-06T19:09:51.004Z,8.00
2018-11-06T19:12:21.496Z,8.00
2018-11-06T19:14:52.364Z,7.80
2018-11-06T19:17:24.219Z,7.80
2018-11-06T19:19:56.416Z,7.80
2018-11-06T19:22:28.031Z,7.80
2018-11-06T19:24:59.457Z,7.70
2018-11-06T19:27:30.652Z,7.70
2018-11-06T19:30:02.487Z,7.70
2018-11-06T19:32:33.350Z,7.70
2018-11-06T19:35:05.585Z,7.70
2018-11-06T19:37:36.878Z,7.60
2018-11-06T19:40:12.410Z,7.60
2018-11-06T19:42:44.706Z,7.60
2018-11-06T19:45:15.274Z,7.60
2018-11-06T19:47:45.802Z,7.50
2018-11-06T19:50:17.908Z,7.50
2018-11-06T19:52:48.729Z,7.50
2018-11-06T19:55:19.253Z,7.50
2018-11-06T19:57:50.005Z,7.50
2018-11-06T20:00:21.923Z,7.40
2018-11-06T20:02:53.491Z,7.40
2018-11-06T20:05:24.130Z,7.40
2018-11-06T20:07:54.452Z,7.40
2018-11-06T20:10:25.713Z,7.30
2018-11-06T20:12:56.523Z,7.20
2018-11-06T20:15:27.331Z,7.20
2018-11-06T20:17:57.886Z,7.20
2018-11-06T20:20:28.554Z,7.10
2018-11-06T20:22:59.820Z,7.10
2018-11-06T20:25:30.587Z,7.00
2018-11-06T20:28:01.067Z,7.00
2018-11-06T20:30:31.914Z,7.00
2018-11-06T20:33:02.543Z,6.90
2018-11-06T20:35:32.990Z,6.90
2018-11-06T20:38:03.495Z,6.90
2018-11-06T20:40:33.912Z,6.90
2018-11-06T20:43:04.473Z,6.80
2018-11-06T20:45:34.863Z,6.80
2018-11-06T20:48:05.641Z,6.80
2018-11-06T20:50:37.093Z,6.80
2018-11-06T20:53:07.778Z,6.70
2018-11-06T20:55:38.309Z,6.70
2018-11-06T20:58:08.731Z,6.70
2018-11-06T21:00:39.866Z,6.70
2018-11-06T21:03:10.316Z,6.70
2018-11-06T21:05:40.884Z,6.70
2018-11-06T21:08:11.287Z,6.60
2018-11-06T21:10:44.880Z,6.60
2018-11-06T21:13:15.432Z,6.60
2018-11-06T21:15:45.849Z,6.60
2018-11-06T21:18:17.000Z,6.60
2018-11-06T21:20:48.908Z,6.50
2018-11-06T21:23:19.752Z,6.50
2018-11-06T21:25:50.557Z,6.50
2018-11-06T21:28:21.033Z,6.50
2018-11-06T21:30:51.523Z,6.50
2018-11-06T21:33:21.962Z,6.50
2018-11-06T21:35:52.432Z,6.50
2018-11-06T21:38:22.901Z,6.40
2018-11-06T21:40:53.401Z,6.30
2018-11-06T21:43:23.819Z,6.30
2018-11-06T21:45:54.313Z,6.20
2018-11-06T21:48:24.744Z,6.20
2018-11-06T21:50:55.233Z,6.20
2018-11-06T21:53:25.638Z,6.20
2018-11-06T21:55:55.975Z,6.20
2018-11-06T21:58:26.392Z,6.10
2018-11-06T22:00:56.743Z,6.10
2018-11-06T22:03:27.015Z,6.00
2018-11-06T22:05:57.314Z,6.00
2018-11-06T22:08:27.610Z,6.00
2018-11-06T22:10:57.885Z,6.00
2018-11-06T22:13:28.204Z,6.00
2018-11-06T22:15:58.611Z,6.00
2018-11-06T22:18:28.915Z,5.90
2018-11-06T22:20:59.216Z,5.90
2018-11-06T22:23:29.594Z,5.90
2018-11-06T22:25:59.881Z,5.90
2018-11-06T22:28:30.182Z,5.90
2018-11-06T22:31:00.462Z,5.80
2018-11-06T22:33:30.740Z,5.80
2018-11-06T22:36:01.029Z,5.80
2018-11-06T22:38:31.645Z,5.70
2018-11-06T22:41:01.946Z,5.70
2018-11-06T22:43:32.207Z,5.70
2018-11-06T22:46:02.488Z,5.70
2018-11-06T22:48:32.797Z,5.70
2018-11-06T22:51:03.118Z,5.70
2018-11-06T22:53:33.353Z,5.70
2018-11-06T22:56:03.774Z,5.70
2018-11-06T22:58:34.097Z,5.60
2018-11-06T23:01:09.676Z,5.60
2018-11-06T23:03:39.994Z,5.60
2018-11-06T23:06:10.500Z,5.50
2018-11-06T23:08:40.590Z,5.60
2018-11-06T23:11:10.881Z,5.50
2018-11-06T23:13:41.171Z,5.50
2018-11-06T23:16:11.506Z,5.50
2018-11-06T23:18:41.764Z,5.50
2018-11-06T23:21:12.036Z,5.40
2018-11-06T23:23:42.323Z,5.40
2018-11-06T23:26:12.634Z,5.40
2018-11-06T23:28:42.881Z,5.30
2018-11-06T23:31:13.173Z,5.30
2018-11-06T23:33:43.821Z,5.30
2018-11-06T23:36:14.136Z,5.30
2018-11-06T23:38:44.456Z,5.30
2018-11-06T23:41:14.758Z,5.30
2018-11-06T23:43:45.099Z,5.30
2018-11-06T23:46:15.381Z,5.30
2018-11-06T23:48:45.724Z,5.30
2018-11-06T23:51:16.037Z,5.30
2018-11-06T23:53:46.349Z,5.20
2018-11-06T23:56:16.724Z,5.20
2018-11-06T23:58:46.961Z,5.20
